Coatsburg, Illinois
Current Conditions -  °F | °C
As of 3:06 PM on Wednesday 26 Nov 2014 (Local Time) from KUIN Reporting Station
Freezing Rain Freezing Rain  
Wind Chill: 24°   Ceiling: 800
Heat Index: 32°   Visibility: 1.7mi
Dew Point: 30°   Wind: 9mph
Humidity: 92%   Direction: 110°ESE
Pressure: 29.98"   Gusts: NA
Location:  40.03°N, 91.16°W
Report Text: KUIN 262106Z AUTO 11008KT 1 3/4SM -FZRA BR OVC008 00/M01 A2998 RMK AO2 UPE04FZRAB04 CIG 006V010 P0000 I1001 T00001011
Loading
Personal Weather Stations






























Interactive Weather Map New forecast layout! Learn more

10-Day Weather Forecast

Advertisements
Track Severe Weather on mobile